createdAt,value
2017-02-13T00:00:31.163Z,0
2017-02-13T00:01:40.667Z,0
2017-02-13T00:02:49.643Z,0
2017-02-13T00:03:58.744Z,0
2017-02-13T00:05:07.736Z,0
2017-02-13T00:06:16.818Z,0
2017-02-13T00:07:25.878Z,0
2017-02-13T00:08:35.131Z,0
2017-02-13T00:09:44.199Z,0
2017-02-13T00:10:53.267Z,0
2017-02-13T00:12:02.245Z,0
2017-02-13T00:13:11.223Z,0
2017-02-13T00:14:20.213Z,0
2017-02-13T00:15:29.308Z,0
2017-02-13T00:16:38.286Z,0
2017-02-13T00:17:47.671Z,0
2017-02-13T00:18:56.646Z,0
2017-02-13T00:20:05.619Z,0
2017-02-13T00:21:14.589Z,0
2017-02-13T00:22:23.561Z,0
2017-02-13T00:23:32.630Z,0
2017-02-13T00:24:41.608Z,0
2017-02-13T00:25:50.597Z,0
2017-02-13T00:26:59.594Z,0
2017-02-13T00:28:08.597Z,0
2017-02-13T00:29:17.582Z,0
2017-02-13T00:30:26.553Z,0
2017-02-13T00:31:35.523Z,0
2017-02-13T00:32:44.488Z,0
2017-02-13T00:33:53.466Z,0
2017-02-13T00:35:02.448Z,0
2017-02-13T00:36:11.447Z,0
2017-02-13T00:37:20.431Z,0
2017-02-13T00:38:29.415Z,0
2017-02-13T00:39:38.388Z,0
2017-02-13T00:40:47.762Z,0
2017-02-13T00:41:56.753Z,0
2017-02-13T00:43:05.739Z,0
2017-02-13T00:44:14.791Z,0
2017-02-13T00:45:23.950Z,0
2017-02-13T00:46:32.930Z,0
2017-02-13T00:47:41.915Z,0
2017-02-13T00:48:50.967Z,0
2017-02-13T00:49:59.937Z,0
2017-02-13T00:51:08.925Z,0
2017-02-13T00:52:17.900Z,0
2017-02-13T00:53:26.898Z,0
2017-02-13T00:54:35.968Z,0
2017-02-13T00:55:45.054Z,0
2017-02-13T00:56:54.440Z,0
2017-02-13T00:58:03.495Z,0
2017-02-13T00:59:12.460Z,0
2017-02-13T01:00:21.446Z,0
2017-02-13T01:01:30.432Z,0
2017-02-13T01:02:39.525Z,0
2017-02-13T01:03:48.523Z,0
2017-02-13T01:04:57.513Z,0
2017-02-13T01:06:06.507Z,0
2017-02-13T01:07:15.471Z,0
2017-02-13T01:08:24.448Z,0
2017-02-13T01:09:33.848Z,0
2017-02-13T01:10:42.821Z,0
2017-02-13T01:11:51.800Z,0
2017-02-13T01:13:00.770Z,0
2017-02-13T01:14:10.359Z,0
2017-02-13T01:15:19.343Z,0
2017-02-13T01:16:28.413Z,0
2017-02-13T01:17:37.418Z,0
2017-02-13T01:18:46.400Z,0
2017-02-13T01:19:55.373Z,0
2017-02-13T01:21:04.461Z,0
2017-02-13T01:22:13.519Z,0
2017-02-13T01:23:22.588Z,0
2017-02-13T01:24:31.576Z,0
2017-02-13T01:25:40.555Z,0
2017-02-13T01:26:49.542Z,0
2017-02-13T01:27:58.517Z,0
2017-02-13T01:29:07.663Z,0
2017-02-13T01:30:16.640Z,0
2017-02-13T01:31:25.650Z,0
2017-02-13T01:32:34.624Z,0
2017-02-13T01:33:43.711Z,0
2017-02-13T01:34:52.700Z,0
2017-02-13T01:36:01.770Z,0
2017-02-13T01:37:11.154Z,0
2017-02-13T01:38:20.139Z,0
2017-02-13T01:39:29.109Z,0
2017-02-13T01:40:38.105Z,0
2017-02-13T01:41:47.072Z,0
2017-02-13T01:42:56.071Z,0
2017-02-13T01:44:05.139Z,0
2017-02-13T01:45:14.112Z,0
2017-02-13T01:46:23.093Z,0
2017-02-13T01:47:32.093Z,0
2017-02-13T01:48:41.157Z,0
2017-02-13T01:49:50.156Z,0
2017-02-13T01:50:59.131Z,0
2017-02-13T01:52:08.132Z,0
2017-02-13T01:53:17.217Z,0
2017-02-13T01:54:26.615Z,0
2017-02-13T01:55:35.605Z,0
2017-02-13T01:56:44.580Z,0
2017-02-13T01:57:53.558Z,0
2017-02-13T01:59:02.548Z,0
2017-02-13T02:00:11.530Z,0
2017-02-13T02:01:20.500Z,0
2017-02-13T02:02:29.585Z,0
2017-02-13T02:03:38.565Z,0
2017-02-13T02:04:47.552Z,0
2017-02-13T02:05:56.629Z,0
2017-02-13T02:07:05.599Z,0
2017-02-13T02:08:14.590Z,0
2017-02-13T02:09:23.579Z,0
2017-02-13T02:10:32.555Z,0
2017-02-13T02:11:41.520Z,0
2017-02-13T02:12:50.521Z,0
2017-02-13T02:13:59.914Z,0
2017-02-13T02:15:08.888Z,0
2017-02-13T02:16:17.870Z,0
2017-02-13T02:17:26.838Z,0
2017-02-13T02:18:35.822Z,0
2017-02-13T02:19:46.642Z,0
2017-02-13T02:20:55.628Z,0
2017-02-13T02:22:05.321Z,0
2017-02-13T02:23:15.060Z,0
2017-02-13T02:24:24.790Z,0
2017-02-13T02:25:34.655Z,0
2017-02-13T02:26:45.289Z,0
2017-02-13T02:27:56.002Z,0
2017-02-13T02:29:05.808Z,0
2017-02-13T02:30:15.618Z,0
2017-02-13T02:31:24.584Z,0
2017-02-13T02:32:33.596Z,0
2017-02-13T02:33:43.296Z,0
2017-02-13T02:34:52.353Z,0
2017-02-13T02:36:01.517Z,0
2017-02-13T02:37:10.499Z,0
2017-02-13T02:38:19.569Z,0
2017-02-13T02:39:28.535Z,0
2017-02-13T02:40:37.608Z,0
2017-02-13T02:41:47.010Z,0
2017-02-13T02:42:55.995Z,0
2017-02-13T02:44:05.022Z,0
2017-02-13T02:45:14.005Z,0
2017-02-13T02:46:22.972Z,0
2017-02-13T02:47:31.952Z,0
2017-02-13T02:48:40.932Z,0
2017-02-13T02:49:49.989Z,0
2017-02-13T02:50:58.972Z,0
2017-02-13T02:52:07.957Z,0
2017-02-13T02:53:17.027Z,0
2017-02-13T02:54:26.026Z,0
2017-02-13T02:55:35.020Z,0
2017-02-13T02:56:44.001Z,0
2017-02-13T02:57:53.040Z,0
2017-02-13T02:59:02.055Z,0
2017-02-13T03:00:11.051Z,0
2017-02-13T03:01:20.047Z,0
2017-02-13T03:02:29.064Z,0
2017-02-13T03:03:38.046Z,0
2017-02-13T03:04:47.100Z,0
2017-02-13T03:05:56.262Z,0
2017-02-13T03:07:05.258Z,0
2017-02-13T03:08:14.236Z,0
2017-02-13T03:09:23.293Z,0
2017-02-13T03:10:32.432Z,0
2017-02-13T03:11:41.401Z,0
2017-02-13T03:12:50.375Z,0
2017-02-13T03:13:59.364Z,0
2017-02-13T03:15:09.707Z,0
2017-02-13T03:16:19.968Z,0
2017-02-13T03:17:30.859Z,0
2017-02-13T03:18:40.448Z,0
2017-02-13T03:19:49.977Z,0
2017-02-13T03:20:59.801Z,0
2017-02-13T03:22:10.385Z,0
2017-02-13T03:23:20.636Z,0
2017-02-13T03:24:29.819Z,0
2017-02-13T03:25:39.246Z,0
2017-02-13T03:26:48.215Z,0
2017-02-13T03:27:58.259Z,0
2017-02-13T03:29:07.474Z,0
2017-02-13T03:30:17.507Z,0
2017-02-13T03:31:27.742Z,0
2017-02-13T03:32:37.990Z,0
2017-02-13T03:33:47.989Z,0
2017-02-13T03:34:58.894Z,0
2017-02-13T03:36:09.649Z,0
2017-02-13T03:37:20.138Z,0
2017-02-13T03:38:30.419Z,0
2017-02-13T03:39:40.478Z,0
2017-02-13T03:40:50.603Z,0
2017-02-13T03:41:59.571Z,0
2017-02-13T03:43:10.381Z,0
2017-02-13T03:44:20.550Z,0
2017-02-13T03:45:29.777Z,0
2017-02-13T03:46:39.391Z,0
2017-02-13T03:47:48.945Z,0
2017-02-13T03:48:58.199Z,0
2017-02-13T03:50:08.087Z,0
2017-02-13T03:51:17.288Z,0
2017-02-13T03:52:27.556Z,0
2017-02-13T03:53:37.997Z,0
2017-02-13T03:54:48.232Z,0
2017-02-13T03:55:57.245Z,0
2017-02-13T03:57:07.392Z,0
2017-02-13T03:58:17.579Z,0
2017-02-13T03:59:28.126Z,0
2017-02-13T04:00:37.355Z,0
2017-02-13T04:01:46.997Z,0
2017-02-13T04:02:57.851Z,0
2017-02-13T04:04:07.658Z,0
2017-02-13T04:05:16.726Z,0
2017-02-13T04:06:26.857Z,0
2017-02-13T04:07:36.746Z,0
2017-02-13T04:08:45.728Z,0
2017-02-13T04:09:55.648Z,0
2017-02-13T04:11:04.726Z,0
2017-02-13T04:12:14.501Z,0
2017-02-13T04:13:23.636Z,0
2017-02-13T04:14:34.063Z,0
2017-02-13T04:15:44.123Z,0
2017-02-13T04:16:54.211Z,0
2017-02-13T04:18:03.400Z,0
2017-02-13T04:19:13.313Z,0
2017-02-13T04:20:22.393Z,0
2017-02-13T04:21:31.962Z,0
2017-02-13T04:22:40.981Z,0
2017-02-13T04:23:51.437Z,0
2017-02-13T04:25:01.722Z,0
2017-02-13T04:26:11.870Z,0
2017-02-13T04:27:22.178Z,0
2017-02-13T04:28:31.401Z,0
2017-02-13T04:29:40.599Z,0
2017-02-13T04:30:49.701Z,0
2017-02-13T04:31:59.108Z,0
2017-02-13T04:33:08.328Z,0
2017-02-13T04:34:17.695Z,0
2017-02-13T04:35:27.146Z,0
2017-02-13T04:36:36.614Z,0
2017-02-13T04:37:45.896Z,0
2017-02-13T04:38:55.488Z,0
2017-02-13T04:40:04.989Z,0
2017-02-13T04:41:14.611Z,0
2017-02-13T04:42:25.499Z,0
2017-02-13T04:43:34.569Z,0
2017-02-13T04:44:44.459Z,0
2017-02-13T04:45:54.549Z,0
2017-02-13T04:47:03.859Z,0
2017-02-13T04:48:13.588Z,0
2017-02-13T04:49:22.835Z,0
2017-02-13T04:50:32.123Z,0
2017-02-13T04:51:41.111Z,0
2017-02-13T04:52:51.597Z,0
2017-02-13T04:54:02.455Z,0
2017-02-13T04:55:12.343Z,0
2017-02-13T04:56:21.823Z,0
2017-02-13T04:57:31.368Z,0
2017-02-13T04:58:40.932Z,0
2017-02-13T04:59:50.458Z,0
2017-02-13T05:01:00.156Z,0
2017-02-13T05:02:10.155Z,0
2017-02-13T05:03:19.155Z,0
2017-02-13T05:04:29.008Z,0
2017-02-13T05:05:38.379Z,0
2017-02-13T05:06:48.541Z,0
2017-02-13T05:07:59.973Z,0
2017-02-13T05:09:10.808Z,0
2017-02-13T05:10:20.191Z,0
2017-02-13T05:11:30.041Z,0
2017-02-13T05:12:39.033Z,0
2017-02-13T05:13:48.932Z,0
2017-02-13T05:14:57.910Z,0
2017-02-13T05:16:08.284Z,0
2017-02-13T05:17:18.505Z,0
2017-02-13T05:18:28.872Z,0
2017-02-13T05:19:37.964Z,0
2017-02-13T05:20:48.564Z,0
2017-02-13T05:21:58.319Z,0
2017-02-13T05:23:08.435Z,0
2017-02-13T05:24:17.421Z,0
2017-02-13T05:25:27.108Z,0
2017-02-13T05:26:36.102Z,0
2017-02-13T05:27:46.418Z,0
2017-02-13T05:28:56.144Z,0
2017-02-13T05:30:05.431Z,0
2017-02-13T05:31:15.747Z,0
2017-02-13T05:32:25.822Z,0
2017-02-13T05:33:36.282Z,0
2017-02-13T05:34:45.249Z,0
2017-02-13T05:35:54.913Z,0
2017-02-13T05:37:03.883Z,0
2017-02-13T05:38:14.169Z,0
2017-02-13T05:39:24.652Z,0
2017-02-13T05:40:34.871Z,0
2017-02-13T05:41:45.590Z,0
2017-02-13T05:42:55.461Z,0
2017-02-13T05:44:04.533Z,0
2017-02-13T05:45:15.331Z,0
2017-02-13T05:46:24.447Z,0
2017-02-13T05:47:33.425Z,0
2017-02-13T05:48:42.936Z,0
2017-02-13T05:49:52.123Z,0
2017-02-13T05:51:01.097Z,0
2017-02-13T05:52:11.101Z,0
2017-02-13T05:53:20.777Z,0
2017-02-13T05:54:30.156Z,0
2017-02-13T05:55:40.337Z,0
2017-02-13T05:56:49.328Z,0
2017-02-13T05:57:58.759Z,0
2017-02-13T05:59:07.819Z,0
2017-02-13T06:00:18.011Z,0
2017-02-13T06:01:27.504Z,0
2017-02-13T06:02:36.948Z,0
2017-02-13T06:03:47.805Z,0
2017-02-13T06:04:58.554Z,0
2017-02-13T06:06:08.651Z,0
2017-02-13T06:07:19.110Z,0
2017-02-13T06:08:30.465Z,0
2017-02-13T06:09:39.439Z,0
2017-02-13T06:10:48.415Z,0
2017-02-13T06:11:58.450Z,0
2017-02-13T06:13:09.230Z,0
2017-02-13T06:14:19.600Z,0
2017-02-13T06:15:29.997Z,0
2017-02-13T06:16:40.363Z,0
2017-02-13T06:17:49.735Z,0
2017-02-13T06:18:59.198Z,0
2017-02-13T06:20:09.385Z,0
2017-02-13T06:21:20.007Z,0
2017-02-13T06:22:29.178Z,0
2017-02-13T06:23:39.248Z,0
2017-02-13T06:24:48.233Z,0
2017-02-13T06:25:57.213Z,0
2017-02-13T06:27:06.193Z,0
2017-02-13T06:28:15.162Z,0
2017-02-13T06:29:24.244Z,0
2017-02-13T06:30:33.222Z,0
2017-02-13T06:31:42.205Z,5
2017-02-13T06:32:51.194Z,5
2017-02-13T06:34:00.163Z,5
2017-02-13T06:35:09.143Z,5
2017-02-13T06:36:18.127Z,5
2017-02-13T06:37:27.100Z,5
2017-02-13T06:38:36.183Z,5
2017-02-13T06:39:45.169Z,5
2017-02-13T06:40:54.140Z,5
2017-02-13T06:42:03.226Z,5
2017-02-13T06:43:12.282Z,10
2017-02-13T06:44:21.273Z,10
2017-02-13T06:45:30.267Z,10
2017-02-13T06:46:39.237Z,10
2017-02-13T06:47:48.226Z,10
2017-02-13T06:48:57.298Z,10
2017-02-13T06:50:06.278Z,10
2017-02-13T06:51:15.669Z,10
2017-02-13T06:52:24.645Z,10
2017-02-13T06:53:33.647Z,15
2017-02-13T06:54:42.624Z,15
2017-02-13T06:55:51.683Z,15
2017-02-13T06:57:00.663Z,15
2017-02-13T06:58:09.648Z,15
2017-02-13T06:59:18.745Z,15
2017-02-13T07:00:27.816Z,15
2017-02-13T07:01:36.819Z,15
2017-02-13T07:02:45.791Z,20
2017-02-13T07:03:54.759Z,20
2017-02-13T07:05:04.157Z,20
2017-02-13T07:06:13.120Z,20
2017-02-13T07:07:22.513Z,20
2017-02-13T07:08:31.490Z,20
2017-02-13T07:09:40.473Z,20
2017-02-13T07:10:49.619Z,20
2017-02-13T07:11:58.629Z,20
2017-02-13T07:13:07.709Z,25
2017-02-13T07:14:16.775Z,25
2017-02-13T07:15:25.753Z,25
2017-02-13T07:16:34.819Z,25
2017-02-13T07:17:43.901Z,25
2017-02-13T07:18:52.865Z,25
2017-02-13T07:20:01.846Z,25
2017-02-13T07:21:10.906Z,25
2017-02-13T07:22:19.907Z,30
2017-02-13T07:23:28.869Z,30
2017-02-13T07:24:37.852Z,30
2017-02-13T07:25:46.933Z,30
2017-02-13T07:26:55.919Z,30
2017-02-13T07:28:04.909Z,30
2017-02-13T07:29:13.883Z,30
2017-02-13T07:30:22.867Z,30
2017-02-13T07:31:31.923Z,30
2017-02-13T07:32:40.924Z,35
2017-02-13T07:33:49.907Z,35
2017-02-13T07:34:59.066Z,35
2017-02-13T07:36:08.063Z,35
2017-02-13T07:37:17.054Z,35
2017-02-13T07:38:26.036Z,35
2017-02-13T07:39:35.008Z,35
2017-02-13T07:40:44.389Z,35
2017-02-13T07:41:53.380Z,35
2017-02-13T07:43:02.447Z,40
2017-02-13T07:44:11.425Z,40
2017-02-13T07:45:20.410Z,40
2017-02-13T07:46:29.476Z,40
2017-02-13T07:47:38.463Z,40
2017-02-13T07:48:47.531Z,40
2017-02-13T07:49:56.508Z,40
2017-02-13T07:51:05.503Z,40
2017-02-13T07:52:14.469Z,40
2017-02-13T07:53:23.524Z,40
2017-02-13T07:54:32.511Z,45
2017-02-13T07:55:41.605Z,45
2017-02-13T07:56:50.591Z,45
2017-02-13T07:57:59.978Z,45
2017-02-13T07:59:08.962Z,45
2017-02-13T08:00:17.933Z,45
2017-02-13T08:01:26.911Z,45
2017-02-13T08:02:35.897Z,45
2017-02-13T08:03:44.903Z,45
2017-02-13T08:04:53.971Z,45
2017-02-13T08:06:02.963Z,45
2017-02-13T08:07:11.964Z,45
2017-02-13T08:08:20.933Z,50
2017-02-13T08:09:29.896Z,50
2017-02-13T08:10:38.885Z,50
2017-02-13T08:11:47.876Z,50
2017-02-13T08:12:56.873Z,50
2017-02-13T08:14:05.859Z,50
2017-02-13T08:15:15.236Z,50
2017-02-13T08:16:24.213Z,50
2017-02-13T08:17:33.177Z,50
2017-02-13T08:18:42.187Z,50
2017-02-13T08:19:51.189Z,50
2017-02-13T08:21:00.661Z,50
2017-02-13T08:22:10.047Z,50
2017-02-13T08:23:19.095Z,50
2017-02-13T08:24:28.079Z,50
2017-02-13T08:25:37.084Z,55
2017-02-13T08:26:46.092Z,55
2017-02-13T08:27:55.057Z,55
2017-02-13T08:29:04.043Z,55
2017-02-13T08:30:13.036Z,55
2017-02-13T08:31:22.019Z,55
2017-02-13T08:32:31.125Z,55
2017-02-13T08:33:40.199Z,55
2017-02-13T08:34:49.184Z,55
2017-02-13T08:35:58.163Z,55
2017-02-13T08:37:07.154Z,55
2017-02-13T08:38:16.225Z,55
2017-02-13T08:39:25.210Z,55
2017-02-13T08:40:34.178Z,55
2017-02-13T08:41:43.232Z,55
2017-02-13T08:42:52.307Z,55
2017-02-13T08:44:01.692Z,60
2017-02-13T08:45:10.677Z,60
2017-02-13T08:46:19.645Z,60
2017-02-13T08:47:28.812Z,60
2017-02-13T08:48:37.792Z,60
2017-02-13T08:49:47.278Z,60
2017-02-13T08:50:56.258Z,60
2017-02-13T08:52:05.244Z,60
2017-02-13T08:53:14.689Z,60
2017-02-13T08:54:23.661Z,60
2017-02-13T08:55:32.642Z,60
2017-02-13T08:56:41.614Z,60
2017-02-13T08:57:50.585Z,60
2017-02-13T08:58:59.576Z,60
2017-02-13T09:00:08.564Z,60
2017-02-13T09:01:17.555Z,60
2017-02-13T09:02:26.528Z,60
2017-02-13T09:03:35.513Z,60
2017-02-13T09:04:44.522Z,60
2017-02-13T09:05:53.500Z,60
2017-02-13T09:07:02.478Z,60
2017-02-13T09:08:11.461Z,60
2017-02-13T09:09:20.525Z,65
2017-02-13T09:10:29.588Z,65
2017-02-13T09:11:38.691Z,65
2017-02-13T09:12:47.693Z,65
2017-02-13T09:13:56.696Z,65
2017-02-13T09:15:05.669Z,65
2017-02-13T09:16:14.746Z,65
2017-02-13T09:17:23.727Z,65
2017-02-13T09:18:32.707Z,65
2017-02-13T09:19:41.719Z,65
2017-02-13T09:20:50.711Z,65
2017-02-13T09:21:59.694Z,65
2017-02-13T09:23:08.667Z,65
2017-02-13T09:24:17.636Z,65
2017-02-13T09:25:26.635Z,65
2017-02-13T09:26:35.693Z,65
2017-02-13T09:27:44.682Z,65
2017-02-13T09:28:53.668Z,65
2017-02-13T09:30:02.736Z,65
2017-02-13T09:31:11.702Z,65
2017-02-13T09:32:20.867Z,65
2017-02-13T09:33:29.869Z,65
2017-02-13T09:34:38.836Z,65
2017-02-13T09:35:51.087Z,65
2017-02-13T09:37:00.071Z,65
2017-02-13T09:38:09.042Z,65
2017-02-13T09:39:18.037Z,65
2017-02-13T09:40:27.035Z,65
2017-02-13T09:41:36.105Z,70
2017-02-13T09:42:45.090Z,70
2017-02-13T09:43:54.088Z,70
2017-02-13T09:45:03.069Z,70
2017-02-13T09:46:12.067Z,70
2017-02-13T09:47:21.544Z,70
2017-02-13T09:48:30.526Z,70
2017-02-13T09:49:39.515Z,70
2017-02-13T09:50:48.590Z,70
2017-02-13T09:51:57.566Z,70
2017-02-13T09:53:06.960Z,70
2017-02-13T09:54:16.019Z,70
2017-02-13T09:55:25.657Z,70
2017-02-13T09:56:36.068Z,70
2017-02-13T09:57:45.516Z,70
2017-02-13T09:58:54.539Z,70
2017-02-13T10:00:03.530Z,70
2017-02-13T10:01:13.181Z,70
2017-02-13T10:02:22.787Z,70
2017-02-13T10:03:31.869Z,70
2017-02-13T10:04:41.444Z,70
2017-02-13T10:05:50.422Z,70
2017-02-13T10:06:59.673Z,70
2017-02-13T10:08:09.276Z,70
2017-02-13T10:09:19.227Z,70
2017-02-13T10:10:28.610Z,70
2017-02-13T10:11:37.867Z,70
2017-02-13T10:12:47.580Z,70
2017-02-13T10:13:57.172Z,70
2017-02-13T10:15:06.738Z,70
2017-02-13T10:16:15.889Z,70
2017-02-13T10:17:24.891Z,70
2017-02-13T10:18:33.880Z,70
2017-02-13T10:19:43.330Z,70
2017-02-13T10:20:53.228Z,70
2017-02-13T10:22:02.931Z,70
2017-02-13T10:23:12.751Z,70
2017-02-13T10:24:22.456Z,70
2017-02-13T10:25:32.685Z,70
2017-02-13T10:26:42.416Z,70
2017-02-13T10:27:52.041Z,70
2017-02-13T10:29:01.022Z,70
2017-02-13T10:30:09.991Z,70
2017-02-13T10:31:19.373Z,70
2017-02-13T10:32:28.359Z,70
2017-02-13T10:33:37.329Z,70
2017-02-13T10:34:46.309Z,70
2017-02-13T10:35:55.373Z,70
2017-02-13T10:37:04.363Z,70
2017-02-13T10:38:13.332Z,70
2017-02-13T10:39:22.318Z,70
2017-02-13T10:40:31.698Z,70
2017-02-13T10:41:40.672Z,70
2017-02-13T10:42:49.746Z,70
2017-02-13T10:43:58.732Z,70
2017-02-13T10:45:07.706Z,70
2017-02-13T10:46:16.685Z,70
2017-02-13T10:47:25.838Z,70
2017-02-13T10:48:34.816Z,70
2017-02-13T10:49:43.805Z,70
2017-02-13T10:50:52.783Z,70
2017-02-13T10:52:02.164Z,70
2017-02-13T10:53:11.151Z,70
2017-02-13T10:54:20.238Z,70
2017-02-13T10:55:29.210Z,70
2017-02-13T10:56:38.179Z,70
2017-02-13T10:57:47.178Z,70
2017-02-13T10:58:56.149Z,70
2017-02-13T11:00:05.125Z,70
2017-02-13T11:01:14.110Z,70
2017-02-13T11:02:23.073Z,70
2017-02-13T11:03:32.078Z,70
2017-02-13T11:04:41.079Z,70
2017-02-13T11:05:50.067Z,70
2017-02-13T11:06:59.134Z,75
2017-02-13T11:08:08.117Z,75
2017-02-13T11:09:17.511Z,70
2017-02-13T11:10:26.505Z,75
2017-02-13T11:11:35.489Z,70
2017-02-13T11:12:44.475Z,70
2017-02-13T11:13:53.460Z,75
2017-02-13T11:15:02.445Z,70
2017-02-13T11:16:12.031Z,75
2017-02-13T11:17:21.020Z,70
2017-02-13T11:18:30.008Z,70
2017-02-13T11:19:38.989Z,75
2017-02-13T11:20:47.965Z,75
2017-02-13T11:21:56.945Z,75
2017-02-13T11:23:05.934Z,75
2017-02-13T11:24:14.921Z,75
2017-02-13T11:25:23.891Z,75
2017-02-13T11:26:32.865Z,75
2017-02-13T11:27:41.854Z,75
2017-02-13T11:28:50.855Z,75
2017-02-13T11:30:00.353Z,75
2017-02-13T11:31:09.358Z,75
2017-02-13T11:32:18.777Z,75
2017-02-13T11:33:27.765Z,75
2017-02-13T11:34:36.928Z,75
2017-02-13T11:35:45.918Z,75
2017-02-13T11:36:54.980Z,75
2017-02-13T11:38:04.370Z,75
2017-02-13T11:39:13.356Z,75
2017-02-13T11:40:22.367Z,70
2017-02-13T11:41:31.355Z,75
2017-02-13T11:42:40.339Z,70
2017-02-13T11:43:49.320Z,75
2017-02-13T11:44:58.394Z,70
2017-02-13T11:46:07.784Z,70
2017-02-13T11:47:16.765Z,75
2017-02-13T11:48:25.748Z,75
2017-02-13T11:49:34.735Z,75
2017-02-13T11:50:43.722Z,70
2017-02-13T11:51:52.700Z,75
2017-02-13T11:53:01.680Z,70
2017-02-13T11:54:10.683Z,70
2017-02-13T11:55:19.662Z,70
2017-02-13T11:56:28.668Z,70
2017-02-13T11:57:37.753Z,70
2017-02-13T11:58:46.752Z,70
2017-02-13T11:59:55.824Z,70
2017-02-13T12:01:04.804Z,70
2017-02-13T12:02:13.796Z,70
2017-02-13T12:03:22.782Z,70
2017-02-13T12:04:31.783Z,70
2017-02-13T12:05:40.811Z,70
2017-02-13T12:06:49.871Z,70
2017-02-13T12:07:58.963Z,70
2017-02-13T12:09:07.946Z,70
2017-02-13T12:10:16.925Z,70
2017-02-13T12:11:25.993Z,70
2017-02-13T12:12:35.096Z,70
2017-02-13T12:13:44.090Z,70
2017-02-13T12:14:53.071Z,70
2017-02-13T12:16:02.082Z,70
2017-02-13T12:17:11.154Z,70
2017-02-13T12:18:20.132Z,70
2017-02-13T12:19:29.112Z,70
2017-02-13T12:20:38.197Z,70
2017-02-13T12:21:47.277Z,70
2017-02-13T12:22:56.283Z,70
2017-02-13T12:24:05.296Z,70
2017-02-13T12:25:14.274Z,70
2017-02-13T12:26:23.255Z,70
2017-02-13T12:27:32.268Z,70
2017-02-13T12:28:41.252Z,70
2017-02-13T12:29:50.325Z,70
2017-02-13T12:31:00.515Z,70
2017-02-13T12:32:09.583Z,70
2017-02-13T12:33:18.562Z,70
2017-02-13T12:34:28.049Z,65
2017-02-13T12:35:37.036Z,65
2017-02-13T12:36:46.121Z,65
2017-02-13T12:37:55.275Z,65
2017-02-13T12:39:04.287Z,65
2017-02-13T12:40:13.270Z,65
2017-02-13T12:41:22.267Z,65
2017-02-13T12:42:31.384Z,65
2017-02-13T12:43:40.542Z,65
2017-02-13T12:45:40.555Z,65
2017-02-13T12:46:49.670Z,65
2017-02-13T12:47:58.678Z,65
2017-02-13T12:49:07.656Z,65
2017-02-13T12:50:16.629Z,65
2017-02-13T12:51:25.608Z,65
2017-02-13T12:52:34.900Z,65
2017-02-13T12:53:44.468Z,65
2017-02-13T12:54:54.416Z,65
2017-02-13T12:56:03.406Z,65
2017-02-13T12:57:12.887Z,65
2017-02-13T12:58:22.358Z,65
2017-02-13T12:59:31.353Z,65
2017-02-13T13:00:40.369Z,65
2017-02-13T13:01:49.900Z,65
2017-02-13T13:02:58.869Z,65
2017-02-13T13:04:07.861Z,65
2017-02-13T13:05:16.848Z,65
2017-02-13T13:06:25.863Z,65
2017-02-13T13:07:34.842Z,60
2017-02-13T13:08:43.844Z,60
2017-02-13T13:09:53.173Z,60
2017-02-13T13:11:02.449Z,60
2017-02-13T13:12:11.429Z,60
2017-02-13T13:13:20.407Z,60
2017-02-13T13:14:29.393Z,60
2017-02-13T13:15:38.377Z,60
2017-02-13T13:16:47.380Z,60
2017-02-13T13:17:56.370Z,60
2017-02-13T13:19:05.375Z,60
2017-02-13T13:20:14.959Z,60
2017-02-13T13:21:23.955Z,60
2017-02-13T13:22:33.049Z,60
2017-02-13T13:23:42.060Z,60
2017-02-13T13:24:51.123Z,60
2017-02-13T13:26:00.684Z,60
2017-02-13T13:27:10.476Z,60
2017-02-13T13:28:20.213Z,60
2017-02-13T13:29:29.620Z,60
2017-02-13T13:30:39.206Z,60
2017-02-13T13:31:48.785Z,60
2017-02-13T13:32:58.427Z,60
2017-02-13T13:34:07.399Z,60
2017-02-13T13:35:16.883Z,55
2017-02-13T13:36:25.974Z,55
2017-02-13T13:37:34.948Z,55
2017-02-13T13:38:43.956Z,55
2017-02-13T13:39:53.657Z,55
2017-02-13T13:41:02.642Z,55
2017-02-13T13:42:13.368Z,55
2017-02-13T13:43:25.499Z,55
2017-02-13T13:44:35.114Z,55
2017-02-13T13:45:44.456Z,55
2017-02-13T13:46:54.149Z,55
2017-02-13T13:48:03.304Z,60
2017-02-13T13:49:12.577Z,60
2017-02-13T13:50:22.149Z,55
2017-02-13T13:51:32.168Z,55
2017-02-13T13:52:41.433Z,55
2017-02-13T13:53:50.726Z,55
2017-02-13T13:54:59.706Z,55
2017-02-13T13:56:08.721Z,55
2017-02-13T13:57:17.829Z,50
2017-02-13T13:58:26.801Z,50
2017-02-13T13:59:35.865Z,50
2017-02-13T14:00:44.867Z,50
2017-02-13T14:01:53.926Z,50
2017-02-13T14:03:02.906Z,50
2017-02-13T14:04:11.886Z,50
2017-02-13T14:05:21.692Z,50
2017-02-13T14:06:31.096Z,50
2017-02-13T14:07:40.119Z,50
2017-02-13T14:08:49.102Z,50
2017-02-13T14:09:58.070Z,45
2017-02-13T14:11:07.057Z,45
2017-02-13T14:12:16.042Z,45
2017-02-13T14:13:25.115Z,45
2017-02-13T14:14:34.111Z,45
2017-02-13T14:15:43.093Z,45
2017-02-13T14:16:52.165Z,45
2017-02-13T14:18:01.154Z,45
2017-02-13T14:19:10.141Z,45
2017-02-13T14:20:19.561Z,45
2017-02-13T14:21:28.549Z,45
2017-02-13T14:22:37.529Z,45
2017-02-13T14:23:46.522Z,45
2017-02-13T14:24:55.488Z,45
2017-02-13T14:26:04.481Z,45
2017-02-13T14:27:13.468Z,45
2017-02-13T14:28:22.447Z,45
2017-02-13T14:29:31.441Z,45
2017-02-13T14:30:40.413Z,45
2017-02-13T14:31:49.512Z,40
2017-02-13T14:32:58.507Z,40
2017-02-13T14:34:07.489Z,40
2017-02-13T14:35:16.982Z,40
2017-02-13T14:36:26.055Z,40
2017-02-13T14:37:35.043Z,40
2017-02-13T14:38:44.044Z,40
2017-02-13T14:39:53.121Z,40
2017-02-13T14:41:02.100Z,40
2017-02-13T14:42:11.070Z,40
2017-02-13T14:43:20.148Z,40
2017-02-13T14:44:29.151Z,40
2017-02-13T14:45:38.233Z,40
2017-02-13T14:46:47.229Z,35
2017-02-13T14:47:56.227Z,35
2017-02-13T14:49:05.216Z,35
2017-02-13T14:50:14.279Z,35
2017-02-13T14:51:23.249Z,35
2017-02-13T14:52:32.529Z,35
2017-02-13T14:53:41.724Z,35
2017-02-13T14:54:50.698Z,35
2017-02-13T14:55:59.771Z,35
2017-02-13T14:57:09.161Z,35
2017-02-13T14:58:18.139Z,35
2017-02-13T14:59:27.118Z,30
2017-02-13T15:00:36.111Z,30
2017-02-13T15:01:45.180Z,30
2017-02-13T15:02:54.178Z,30
2017-02-13T15:04:03.163Z,30
2017-02-13T15:05:12.158Z,30
2017-02-13T15:06:21.987Z,30
2017-02-13T15:07:30.970Z,30
2017-02-13T15:08:39.945Z,30
2017-02-13T15:09:48.945Z,30
2017-02-13T15:10:58.332Z,30
2017-02-13T15:12:07.327Z,25
2017-02-13T15:13:16.389Z,25
2017-02-13T15:14:25.456Z,25
2017-02-13T15:15:34.520Z,25
2017-02-13T15:16:43.497Z,25
2017-02-13T15:17:52.507Z,25
2017-02-13T15:19:01.484Z,25
2017-02-13T15:20:10.482Z,25
2017-02-13T15:21:19.467Z,25
2017-02-13T15:22:28.446Z,25
2017-02-13T15:23:37.440Z,25
2017-02-13T15:24:46.466Z,20
2017-02-13T15:25:55.447Z,20
2017-02-13T15:27:04.423Z,20
2017-02-13T15:28:13.410Z,20
2017-02-13T15:29:22.392Z,20
2017-02-13T15:30:31.384Z,20
2017-02-13T15:31:40.370Z,20
2017-02-13T15:32:49.377Z,20
2017-02-13T15:33:58.370Z,20
2017-02-13T15:35:07.379Z,20
2017-02-13T15:36:16.378Z,15
2017-02-13T15:37:25.370Z,15
2017-02-13T15:38:34.354Z,15
2017-02-13T15:39:43.440Z,15
2017-02-13T15:40:52.505Z,15
2017-02-13T15:42:01.479Z,15
2017-02-13T15:43:10.455Z,15
2017-02-13T15:44:19.453Z,15
2017-02-13T15:45:28.454Z,15
2017-02-13T15:46:37.548Z,10
2017-02-13T15:47:46.543Z,10
2017-02-13T15:48:55.532Z,10
2017-02-13T15:50:04.600Z,10
2017-02-13T15:51:13.608Z,10
2017-02-13T15:52:22.581Z,10
2017-02-13T15:53:32.079Z,10
2017-02-13T15:54:41.055Z,10
2017-02-13T15:55:50.121Z,10
2017-02-13T15:56:59.104Z,10
2017-02-13T15:58:08.084Z,5
2017-02-13T15:59:17.067Z,5
2017-02-13T16:00:26.067Z,5
2017-02-13T16:01:35.043Z,5
2017-02-13T16:02:44.036Z,5
2017-02-13T16:03:53.040Z,5
2017-02-13T16:05:02.018Z,5
2017-02-13T16:06:11.025Z,5
2017-02-13T16:07:20.133Z,5
2017-02-13T16:08:29.121Z,5
2017-02-13T16:09:38.149Z,5
2017-02-13T16:10:47.133Z,0
2017-02-13T16:11:56.117Z,0
2017-02-13T16:13:05.113Z,0
2017-02-13T16:14:14.098Z,0
2017-02-13T16:15:23.080Z,0
2017-02-13T16:16:32.066Z,0
2017-02-13T16:17:41.054Z,0
2017-02-13T16:18:50.551Z,0
2017-02-13T16:19:59.549Z,0
2017-02-13T16:21:08.979Z,0
2017-02-13T16:22:17.972Z,0
2017-02-13T16:23:26.956Z,0
2017-02-13T16:24:35.948Z,0
2017-02-13T16:25:44.940Z,0
2017-02-13T16:26:53.944Z,0
2017-02-13T16:28:03.344Z,0
2017-02-13T16:29:12.351Z,0
2017-02-13T16:30:21.933Z,0
2017-02-13T16:31:30.945Z,0
2017-02-13T16:32:39.924Z,0
2017-02-13T16:33:48.911Z,0
2017-02-13T16:34:57.900Z,0
2017-02-13T16:36:06.886Z,0
2017-02-13T16:37:15.872Z,0
2017-02-13T16:38:24.845Z,0
2017-02-13T16:39:34.255Z,0
2017-02-13T16:40:43.256Z,0
2017-02-13T16:41:52.232Z,0
2017-02-13T16:43:01.203Z,0
2017-02-13T16:44:10.593Z,0